Aeroporto :
LOGIN :

Iscrizione | Disclaimer

   EN    FR    IT 

 










Sommario :    VFR   VFR Marginale   IFR   IFR Intensivo   IFR Molto Intensivo
Visibilità : 
Base nubi : 
>= 8 km
>= 3000ft
5 / 8 km
1000 / 3000 ft
1500m / 5 km
500 / 1000 ft
800 / 1500m
200 / 500 ft
< 800m
< 200 ft
Simboli :   Temporali  Nebbia  Neve Forte  Precipitazioni Forti  Vento > 20 kt
SIGMETs :   Varie  Temporali  Ghiacco  Turbolenza  Onda orograficha  Ceneri Vulcaniche






- Altitudine del aeroporto : 184 ft
- Codice IATA : BRU


EBBR - Bruxelles

ULTIMO METAR :
  • 211350Z 10003KT CAVOK 04/02 Q1005 NOSIG

METARs OBSOLETI :
  • 211320Z 11005KT CAVOK 03/01 Q1006 NOSIG
  • 211250Z 11006KT 9999 FEW009 03/01 Q1006 NOSIG
  • 211220Z 11005KT 080V150 9999 BKN009 03/01 Q1006 BECMG BKN015
  • 211150Z 10005KT 080V140 9999 BKN008 02/01 Q1006 NOSIG
  • 211120Z 11004KT 080V140 9999 FEW006 BKN007 02/01 Q1007 NOSIG

TAF TAF EBBR
Valido dal 21 a 12 ore il 22 a 18 ore UTC


211110Z 2112/2218 12006KT 7000 SCT008 BKN012
TEMPO 2112/2113 BKN008
BECMG 2113/2115 SCT015
BECMG 2123/2201 SCT006 BKN011
PROB30
TEMPO 2201/2204 4000 RA SHRA BKN006
BECMG 2206/2208 BKN017



MetMap, La meteo Aeronautica in un colpo d'occhio ! - Copyright ORBIFLY Dicembre 2007 - Disclaimer

ORBIFLY MET'MAP TEAM :

Programmazione e sviluppo : Alexandra Zaïnal
Concezione e sviluppo : Baudouin d'Aumeries
Co-Programmazione e sviluppo : Marc-Olivier Méhu
Supporto tecnico e logistico : Manuel Goepfert
Aiuto per la traduzione : Arnaldo La Scala

Contatto : metmap@orbifly.com




FONTI E CREDITI :

   NOAA